sensor_id;sensor_type;location;lat;lon;timestamp;P1;durP1;ratioP1;P2;durP2;ratioP2
10661;SDS011;5379;51.034;7.006;2023-11-22T00:01:51;3.90;;;3.33;;
10661;SDS011;5379;51.034;7.006;2023-11-22T00:04:18;4.27;;;3.97;;
10661;SDS011;5379;51.034;7.006;2023-11-22T00:06:46;4.63;;;4.33;;
10661;SDS011;5379;51.034;7.006;2023-11-22T00:09:13;4.30;;;3.63;;
10661;SDS011;5379;51.034;7.006;2023-11-22T00:11:41;5.50;;;5.00;;
10661;SDS011;5379;51.034;7.006;2023-11-22T00:14:08;4.47;;;4.17;;
10661;SDS011;5379;51.034;7.006;2023-11-22T00:16:35;4.23;;;3.93;;
10661;SDS011;5379;51.034;7.006;2023-11-22T00:19:05;4.10;;;3.80;;
10661;SDS011;5379;51.034;7.006;2023-11-22T00:21:32;3.90;;;3.63;;
10661;SDS011;5379;51.034;7.006;2023-11-22T00:24:00;3.37;;;3.17;;
10661;SDS011;5379;51.034;7.006;2023-11-22T00:26:29;4.23;;;3.93;;
10661;SDS011;5379;51.034;7.006;2023-11-22T00:28:58;4.93;;;4.43;;
10661;SDS011;5379;51.034;7.006;2023-11-22T00:31:25;3.47;;;3.27;;
10661;SDS011;5379;51.034;7.006;2023-11-22T00:33:52;3.43;;;3.23;;
10661;SDS011;5379;51.034;7.006;2023-11-22T00:36:19;4.03;;;3.73;;
10661;SDS011;5379;51.034;7.006;2023-11-22T00:38:45;4.43;;;4.03;;
10661;SDS011;5379;51.034;7.006;2023-11-22T00:41:12;5.03;;;4.63;;
10661;SDS011;5379;51.034;7.006;2023-11-22T00:43:40;3.93;;;3.73;;
10661;SDS011;5379;51.034;7.006;2023-11-22T00:46:08;6.10;;;5.00;;
10661;SDS011;5379;51.034;7.006;2023-11-22T00:48:35;6.30;;;5.67;;
10661;SDS011;5379;51.034;7.006;2023-11-22T00:51:03;3.80;;;3.57;;
10661;SDS011;5379;51.034;7.006;2023-11-22T00:53:33;4.70;;;4.40;;
10661;SDS011;5379;51.034;7.006;2023-11-22T00:56:01;4.70;;;4.30;;
10661;SDS011;5379;51.034;7.006;2023-11-22T00:58:28;3.60;;;3.40;;
10661;SDS011;5379;51.034;7.006;2023-11-22T05:30:53;5.33;;;4.87;;
10661;SDS011;5379;51.034;7.006;2023-11-22T05:33:20;4.57;;;4.27;;
10661;SDS011;5379;51.034;7.006;2023-11-22T05:35:48;6.40;;;5.90;;
10661;SDS011;5379;51.034;7.006;2023-11-22T05:38:15;5.43;;;5.03;;
10661;SDS011;5379;51.034;7.006;2023-11-22T05:40:42;4.67;;;4.37;;
10661;SDS011;5379;51.034;7.006;2023-11-22T05:43:09;4.77;;;4.47;;
10661;SDS011;5379;51.034;7.006;2023-11-22T05:45:36;5.13;;;4.73;;
10661;SDS011;5379;51.034;7.006;2023-11-22T05:48:04;4.63;;;4.23;;
10661;SDS011;5379;51.034;7.006;2023-11-22T05:50:31;4.93;;;4.27;;
10661;SDS011;5379;51.034;7.006;2023-11-22T05:52:58;5.70;;;5.30;;
10661;SDS011;5379;51.034;7.006;2023-11-22T05:55:25;6.50;;;5.93;;
10661;SDS011;5379;51.034;7.006;2023-11-22T05:57:52;9.63;;;8.17;;
10661;SDS011;5379;51.034;7.006;2023-11-22T06:00:20;5.10;;;4.70;;
10661;SDS011;5379;51.034;7.006;2023-11-22T06:02:47;4.87;;;4.47;;
10661;SDS011;5379;51.034;7.006;2023-11-22T06:05:15;3.70;;;3.40;;
10661;SDS011;5379;51.034;7.006;2023-11-22T06:07:42;4.97;;;4.47;;
10661;SDS011;5379;51.034;7.006;2023-11-22T06:10:09;6.53;;;4.30;;
10661;SDS011;5379;51.034;7.006;2023-11-22T06:12:38;6.77;;;4.60;;
10661;SDS011;5379;51.034;7.006;2023-11-22T06:15:05;4.93;;;4.53;;
10661;SDS011;5379;51.034;7.006;2023-11-22T06:17:32;3.43;;;3.23;;
10661;SDS011;5379;51.034;7.006;2023-11-22T06:19:59;4.13;;;3.73;;
10661;SDS011;5379;51.034;7.006;2023-11-22T06:22:29;3.23;;;3.03;;
10661;SDS011;5379;51.034;7.006;2023-11-22T06:24:57;3.27;;;2.97;;
10661;SDS011;5379;51.034;7.006;2023-11-22T06:27:24;4.83;;;3.57;;
10661;SDS011;5379;51.034;7.006;2023-11-22T06:29:51;4.03;;;3.73;;
10661;SDS011;5379;51.034;7.006;2023-11-22T06:32:17;4.07;;;3.77;;
10661;SDS011;5379;51.034;7.006;2023-11-22T06:34:44;3.20;;;3.00;;
10661;SDS011;5379;51.034;7.006;2023-11-22T06:37:11;3.50;;;3.30;;
10661;SDS011;5379;51.034;7.006;2023-11-22T06:39:39;3.33;;;3.13;;
10661;SDS011;5379;51.034;7.006;2023-11-22T06:42:06;3.83;;;3.53;;
10661;SDS011;5379;51.034;7.006;2023-11-22T06:44:33;5.03;;;4.27;;
10661;SDS011;5379;51.034;7.006;2023-11-22T06:47:00;3.63;;;3.37;;
10661;SDS011;5379;51.034;7.006;2023-11-22T06:49:27;2.50;;;2.40;;
10661;SDS011;5379;51.034;7.006;2023-11-22T06:51:54;4.70;;;3.47;;
10661;SDS011;5379;51.034;7.006;2023-11-22T06:54:21;3.57;;;3.33;;
10661;SDS011;5379;51.034;7.006;2023-11-22T06:56:49;3.57;;;3.27;;
10661;SDS011;5379;51.034;7.006;2023-11-22T06:59:16;4.00;;;3.73;;
10661;SDS011;5379;51.034;7.006;2023-11-22T07:01:43;3.40;;;3.20;;
10661;SDS011;5379;51.034;7.006;2023-11-22T07:04:11;4.80;;;3.67;;
10661;SDS011;5379;51.034;7.006;2023-11-22T07:06:38;5.20;;;3.63;;
10661;SDS011;5379;51.034;7.006;2023-11-22T07:09:04;6.40;;;4.40;;
10661;SDS011;5379;51.034;7.006;2023-11-22T07:11:34;4.27;;;3.87;;
10661;SDS011;5379;51.034;7.006;2023-11-22T07:14:03;3.37;;;3.17;;
10661;SDS011;5379;51.034;7.006;2023-11-22T07:16:30;3.73;;;3.53;;
10661;SDS011;5379;51.034;7.006;2023-11-22T07:18:58;3.40;;;3.20;;
10661;SDS011;5379;51.034;7.006;2023-11-22T07:21:25;3.10;;;2.90;;
10661;SDS011;5379;51.034;7.006;2023-11-22T07:23:52;3.13;;;2.93;;
10661;SDS011;5379;51.034;7.006;2023-11-22T07:26:19;3.53;;;3.23;;
10661;SDS011;5379;51.034;7.006;2023-11-22T07:28:47;3.63;;;3.43;;
10661;SDS011;5379;51.034;7.006;2023-11-22T07:31:15;4.87;;;3.50;;
10661;SDS011;5379;51.034;7.006;2023-11-22T07:33:43;4.33;;;3.93;;
10661;SDS011;5379;51.034;7.006;2023-11-22T07:36:09;4.10;;;3.80;;
10661;SDS011;5379;51.034;7.006;2023-11-22T07:38:39;4.03;;;3.77;;
10661;SDS011;5379;51.034;7.006;2023-11-22T07:41:07;4.13;;;3.27;;
10661;SDS011;5379;51.034;7.006;2023-11-22T07:43:35;4.40;;;3.40;;
10661;SDS011;5379;51.034;7.006;2023-11-22T07:46:04;5.07;;;4.63;;
10661;SDS011;5379;51.034;7.006;2023-11-22T07:48:35;5.07;;;3.70;;
10661;SDS011;5379;51.034;7.006;2023-11-22T07:51:03;4.83;;;4.43;;
10661;SDS011;5379;51.034;7.006;2023-11-22T07:53:30;3.67;;;3.27;;
10661;SDS011;5379;51.034;7.006;2023-11-22T07:55:59;4.67;;;4.27;;
10661;SDS011;5379;51.034;7.006;2023-11-22T07:58:29;4.97;;;4.47;;
10661;SDS011;5379;51.034;7.006;2023-11-22T08:00:56;7.07;;;4.27;;
10661;SDS011;5379;51.034;7.006;2023-11-22T08:03:24;3.63;;;3.33;;
10661;SDS011;5379;51.034;7.006;2023-11-22T08:05:52;4.23;;;3.83;;
10661;SDS011;5379;51.034;7.006;2023-11-22T08:08:20;3.47;;;3.27;;
10661;SDS011;5379;51.034;7.006;2023-11-22T08:10:47;3.87;;;3.57;;
10661;SDS011;5379;51.034;7.006;2023-11-22T08:13:16;3.60;;;3.30;;
10661;SDS011;5379;51.034;7.006;2023-11-22T08:15:44;8.57;;;3.30;;
10661;SDS011;5379;51.034;7.006;2023-11-22T08:18:12;4.27;;;3.97;;
10661;SDS011;5379;51.034;7.006;2023-11-22T08:20:41;3.40;;;3.20;;
10661;SDS011;5379;51.034;7.006;2023-11-22T08:23:09;3.23;;;3.03;;
10661;SDS011;5379;51.034;7.006;2023-11-22T08:25:38;3.40;;;3.10;;
10661;SDS011;5379;51.034;7.006;2023-11-22T08:28:04;3.07;;;2.77;;
10661;SDS011;5379;51.034;7.006;2023-11-22T08:30:33;3.07;;;2.83;;
10661;SDS011;5379;51.034;7.006;2023-11-22T08:33:00;2.67;;;2.57;;
10661;SDS011;5379;51.034;7.006;2023-11-22T08:35:27;2.53;;;2.43;;
10661;SDS011;5379;51.034;7.006;2023-11-22T08:37:54;3.10;;;3.00;;
10661;SDS011;5379;51.034;7.006;2023-11-22T08:40:24;3.07;;;2.87;;
10661;SDS011;5379;51.034;7.006;2023-11-22T08:42:51;2.77;;;2.57;;
10661;SDS011;5379;51.034;7.006;2023-11-22T08:45:18;2.30;;;2.20;;
10661;SDS011;5379;51.034;7.006;2023-11-22T08:47:45;3.00;;;2.80;;
10661;SDS011;5379;51.034;7.006;2023-11-22T08:50:12;3.10;;;2.90;;
10661;SDS011;5379;51.034;7.006;2023-11-22T08:52:40;2.67;;;2.57;;
10661;SDS011;5379;51.034;7.006;2023-11-22T08:55:11;2.30;;;2.20;;
10661;SDS011;5379;51.034;7.006;2023-11-22T08:57:41;4.73;;;2.73;;
10661;SDS011;5379;51.034;7.006;2023-11-22T09:00:08;1.70;;;1.70;;
10661;SDS011;5379;51.034;7.006;2023-11-22T09:02:36;2.87;;;2.67;;
10661;SDS011;5379;51.034;7.006;2023-11-22T09:05:04;3.90;;;2.97;;
10661;SDS011;5379;51.034;7.006;2023-11-22T09:07:33;2.60;;;2.40;;
10661;SDS011;5379;51.034;7.006;2023-11-22T09:10:00;2.80;;;2.37;;
10661;SDS011;5379;51.034;7.006;2023-11-22T09:12:34;3.10;;;2.90;;
10661;SDS011;5379;51.034;7.006;2023-11-22T09:15:03;2.57;;;2.30;;
10661;SDS011;5379;51.034;7.006;2023-11-22T09:17:33;2.80;;;2.60;;
10661;SDS011;5379;51.034;7.006;2023-11-22T09:20:00;3.17;;;2.90;;
10661;SDS011;5379;51.034;7.006;2023-11-22T09:22:28;7.30;;;3.47;;
10661;SDS011;5379;51.034;7.006;2023-11-22T09:24:55;4.50;;;3.20;;
10661;SDS011;5379;51.034;7.006;2023-11-22T09:27:21;3.37;;;3.17;;
10661;SDS011;5379;51.034;7.006;2023-11-22T09:29:50;4.57;;;3.00;;
10661;SDS011;5379;51.034;7.006;2023-11-22T09:32:20;3.13;;;3.03;;
10661;SDS011;5379;51.034;7.006;2023-11-22T09:34:48;3.03;;;2.73;;
10661;SDS011;5379;51.034;7.006;2023-11-22T09:37:15;2.57;;;2.13;;
10661;SDS011;5379;51.034;7.006;2023-11-22T09:39:42;1.90;;;1.80;;
10661;SDS011;5379;51.034;7.006;2023-11-22T09:42:10;2.20;;;2.10;;
10661;SDS011;5379;51.034;7.006;2023-11-22T09:44:38;2.60;;;2.40;;
10661;SDS011;5379;51.034;7.006;2023-11-22T09:47:04;2.07;;;1.97;;
10661;SDS011;5379;51.034;7.006;2023-11-22T09:49:34;1.67;;;1.67;;
10661;SDS011;5379;51.034;7.006;2023-11-22T09:52:02;1.60;;;1.50;;
10661;SDS011;5379;51.034;7.006;2023-11-22T09:54:33;2.13;;;1.60;;
10661;SDS011;5379;51.034;7.006;2023-11-22T09:57:01;3.20;;;2.23;;
10661;SDS011;5379;51.034;7.006;2023-11-22T09:59:33;1.50;;;1.40;;
10661;SDS011;5379;51.034;7.006;2023-11-22T10:02:02;5.33;;;1.80;;
10661;SDS011;5379;51.034;7.006;2023-11-22T10:04:31;2.03;;;1.93;;
10661;SDS011;5379;51.034;7.006;2023-11-22T10:06:59;1.20;;;1.20;;
10661;SDS011;5379;51.034;7.006;2023-11-22T10:09:27;1.40;;;1.40;;
10661;SDS011;5379;51.034;7.006;2023-11-22T10:11:57;0.90;;;0.90;;
10661;SDS011;5379;51.034;7.006;2023-11-22T10:14:24;1.07;;;1.07;;
10661;SDS011;5379;51.034;7.006;2023-11-22T10:16:57;1.90;;;1.80;;
10661;SDS011;5379;51.034;7.006;2023-11-22T10:19:25;1.90;;;1.80;;
10661;SDS011;5379;51.034;7.006;2023-11-22T10:22:03;1.40;;;1.30;;
10661;SDS011;5379;51.034;7.006;2023-11-22T10:24:31;1.60;;;1.57;;
10661;SDS011;5379;51.034;7.006;2023-11-22T10:26:58;1.30;;;1.30;;
10661;SDS011;5379;51.034;7.006;2023-11-22T10:29:25;1.20;;;1.20;;
10661;SDS011;5379;51.034;7.006;2023-11-22T10:31:53;2.00;;;1.63;;
10661;SDS011;5379;51.034;7.006;2023-11-22T10:34:20;1.80;;;1.70;;
10661;SDS011;5379;51.034;7.006;2023-11-22T10:36:47;2.17;;;2.07;;
10661;SDS011;5379;51.034;7.006;2023-11-22T10:39:15;1.80;;;1.70;;
10661;SDS011;5379;51.034;7.006;2023-11-22T10:41:45;2.23;;;2.13;;
10661;SDS011;5379;51.034;7.006;2023-11-22T10:44:12;10.50;;;1.83;;
10661;SDS011;5379;51.034;7.006;2023-11-22T10:46:40;1.50;;;1.50;;
10661;SDS011;5379;51.034;7.006;2023-11-22T10:49:07;1.27;;;1.27;;
10661;SDS011;5379;51.034;7.006;2023-11-22T10:51:34;1.63;;;1.47;;
10661;SDS011;5379;51.034;7.006;2023-11-22T10:54:05;1.70;;;1.70;;
10661;SDS011;5379;51.034;7.006;2023-11-22T10:56:36;1.33;;;1.23;;
10661;SDS011;5379;51.034;7.006;2023-11-22T10:59:09;1.50;;;1.50;;
10661;SDS011;5379;51.034;7.006;2023-11-22T11:01:39;1.67;;;1.40;;
10661;SDS011;5379;51.034;7.006;2023-11-22T11:04:15;2.00;;;1.90;;
10661;SDS011;5379;51.034;7.006;2023-11-22T11:06:51;2.07;;;1.97;;
10661;SDS011;5379;51.034;7.006;2023-11-22T11:09:21;1.30;;;1.30;;
10661;SDS011;5379;51.034;7.006;2023-11-22T11:11:53;1.17;;;1.17;;
10661;SDS011;5379;51.034;7.006;2023-11-22T11:14:22;1.27;;;1.27;;
10661;SDS011;5379;51.034;7.006;2023-11-22T11:16:50;1.13;;;1.13;;
10661;SDS011;5379;51.034;7.006;2023-11-22T11:19:19;1.13;;;1.13;;
10661;SDS011;5379;51.034;7.006;2023-11-22T11:21:47;1.40;;;1.40;;
10661;SDS011;5379;51.034;7.006;2023-11-22T11:24:14;1.67;;;1.27;;
10661;SDS011;5379;51.034;7.006;2023-11-22T11:26:41;1.40;;;1.40;;
10661;SDS011;5379;51.034;7.006;2023-11-22T11:29:30;1.47;;;1.43;;
10661;SDS011;5379;51.034;7.006;2023-11-22T11:31:58;1.20;;;1.20;;
10661;SDS011;5379;51.034;7.006;2023-11-22T11:34:25;3.17;;;1.47;;
10661;SDS011;5379;51.034;7.006;2023-11-22T11:36:52;1.63;;;1.53;;
10661;SDS011;5379;51.034;7.006;2023-11-22T11:39:21;2.80;;;2.27;;
10661;SDS011;5379;51.034;7.006;2023-11-22T11:42:06;1.57;;;1.57;;
10661;SDS011;5379;51.034;7.006;2023-11-22T11:44:35;1.97;;;1.70;;
10661;SDS011;5379;51.034;7.006;2023-11-22T11:47:08;1.07;;;1.07;;
10661;SDS011;5379;51.034;7.006;2023-11-22T11:49:36;1.47;;;1.40;;
10661;SDS011;5379;51.034;7.006;2023-11-22T11:52:03;1.30;;;1.30;;
10661;SDS011;5379;51.034;7.006;2023-11-22T11:54:30;2.33;;;1.77;;
10661;SDS011;5379;51.034;7.006;2023-11-22T11:56:58;1.93;;;1.83;;
10661;SDS011;5379;51.034;7.006;2023-11-22T11:59:25;2.00;;;1.90;;
10661;SDS011;5379;51.034;7.006;2023-11-22T12:01:55;2.73;;;1.67;;
10661;SDS011;5379;51.034;7.006;2023-11-22T12:04:22;1.20;;;1.20;;
10661;SDS011;5379;51.034;7.006;2023-11-22T12:06:49;0.90;;;0.90;;
10661;SDS011;5379;51.034;7.006;2023-11-22T12:09:21;1.40;;;1.37;;
10661;SDS011;5379;51.034;7.006;2023-11-22T12:11:50;1.33;;;1.33;;
10661;SDS011;5379;51.034;7.006;2023-11-22T12:14:18;1.77;;;1.67;;
10661;SDS011;5379;51.034;7.006;2023-11-22T12:16:45;14.23;;;1.60;;
10661;SDS011;5379;51.034;7.006;2023-11-22T12:19:21;1.83;;;1.57;;
10661;SDS011;5379;51.034;7.006;2023-11-22T12:21:49;1.77;;;1.67;;
10661;SDS011;5379;51.034;7.006;2023-11-22T12:24:16;1.20;;;1.20;;
10661;SDS011;5379;51.034;7.006;2023-11-22T12:26:44;1.53;;;1.53;;
10661;SDS011;5379;51.034;7.006;2023-11-22T12:29:13;1.83;;;1.60;;
10661;SDS011;5379;51.034;7.006;2023-11-22T12:31:44;2.70;;;1.47;;
10661;SDS011;5379;51.034;7.006;2023-11-22T12:34:12;1.50;;;1.50;;
10661;SDS011;5379;51.034;7.006;2023-11-22T12:36:42;1.60;;;1.50;;
10661;SDS011;5379;51.034;7.006;2023-11-22T12:39:09;1.23;;;1.23;;
10661;SDS011;5379;51.034;7.006;2023-11-22T12:41:42;1.70;;;1.60;;
10661;SDS011;5379;51.034;7.006;2023-11-22T12:44:10;2.10;;;1.60;;
10661;SDS011;5379;51.034;7.006;2023-11-22T12:46:46;1.70;;;1.60;;
10661;SDS011;5379;51.034;7.006;2023-11-22T12:49:17;1.10;;;1.10;;
10661;SDS011;5379;51.034;7.006;2023-11-22T12:51:52;1.50;;;1.50;;
10661;SDS011;5379;51.034;7.006;2023-11-22T12:54:21;1.30;;;1.30;;
10661;SDS011;5379;51.034;7.006;2023-11-22T12:56:49;0.43;;;0.43;;
10661;SDS011;5379;51.034;7.006;2023-11-22T12:59:19;1.13;;;1.13;;
10661;SDS011;5379;51.034;7.006;2023-11-22T13:01:46;0.70;;;0.70;;
10661;SDS011;5379;51.034;7.006;2023-11-22T13:04:13;1.37;;;1.37;;
10661;SDS011;5379;51.034;7.006;2023-11-22T13:06:40;1.83;;;1.70;;
10661;SDS011;5379;51.034;7.006;2023-11-22T13:09:08;2.20;;;1.13;;
10661;SDS011;5379;51.034;7.006;2023-11-22T13:11:40;2.43;;;1.37;;
10661;SDS011;5379;51.034;7.006;2023-11-22T13:14:08;1.43;;;1.33;;
10661;SDS011;5379;51.034;7.006;2023-11-22T13:16:35;1.50;;;1.10;;
10661;SDS011;5379;51.034;7.006;2023-11-22T13:19:04;1.03;;;1.03;;
10661;SDS011;5379;51.034;7.006;2023-11-22T13:21:31;1.50;;;1.40;;
10661;SDS011;5379;51.034;7.006;2023-11-22T13:23:58;2.03;;;1.87;;
10661;SDS011;5379;51.034;7.006;2023-11-22T13:26:26;1.23;;;1.23;;
10661;SDS011;5379;51.034;7.006;2023-11-22T13:28:53;1.30;;;1.30;;
10661;SDS011;5379;51.034;7.006;2023-11-22T13:31:21;1.63;;;1.57;;
10661;SDS011;5379;51.034;7.006;2023-11-22T13:33:47;1.40;;;1.30;;
10661;SDS011;5379;51.034;7.006;2023-11-22T13:36:15;1.83;;;1.40;;
10661;SDS011;5379;51.034;7.006;2023-11-22T13:38:42;5.03;;;1.83;;
10661;SDS011;5379;51.034;7.006;2023-11-22T13:41:09;1.90;;;1.80;;
10661;SDS011;5379;51.034;7.006;2023-11-22T13:43:37;2.00;;;1.90;;
10661;SDS011;5379;51.034;7.006;2023-11-22T13:46:04;2.00;;;1.90;;
10661;SDS011;5379;51.034;7.006;2023-11-22T13:48:35;1.80;;;1.70;;
10661;SDS011;5379;51.034;7.006;2023-11-22T13:51:02;1.83;;;1.70;;
10661;SDS011;5379;51.034;7.006;2023-11-22T13:53:29;3.30;;;1.60;;
10661;SDS011;5379;51.034;7.006;2023-11-22T13:55:59;1.47;;;1.47;;
10661;SDS011;5379;51.034;7.006;2023-11-22T13:58:33;1.13;;;1.13;;
10661;SDS011;5379;51.034;7.006;2023-11-22T14:01:01;1.40;;;1.23;;
10661;SDS011;5379;51.034;7.006;2023-11-22T14:03:31;1.53;;;1.53;;
10661;SDS011;5379;51.034;7.006;2023-11-22T14:05:57;1.20;;;1.20;;
10661;SDS011;5379;51.034;7.006;2023-11-22T14:08:25;1.40;;;1.10;;
10661;SDS011;5379;51.034;7.006;2023-11-22T14:10:52;1.53;;;1.43;;
10661;SDS011;5379;51.034;7.006;2023-11-22T14:13:19;1.30;;;1.20;;
10661;SDS011;5379;51.034;7.006;2023-11-22T14:15:46;2.17;;;1.33;;
10661;SDS011;5379;51.034;7.006;2023-11-22T14:18:13;1.60;;;1.50;;
10661;SDS011;5379;51.034;7.006;2023-11-22T14:20:40;1.40;;;1.30;;
10661;SDS011;5379;51.034;7.006;2023-11-22T14:23:06;1.00;;;1.00;;
10661;SDS011;5379;51.034;7.006;2023-11-22T14:25:33;0.87;;;0.87;;
10661;SDS011;5379;51.034;7.006;2023-11-22T14:28:00;1.33;;;1.30;;
10661;SDS011;5379;51.034;7.006;2023-11-22T14:30:27;1.37;;;1.33;;
10661;SDS011;5379;51.034;7.006;2023-11-22T14:32:55;0.87;;;0.87;;
10661;SDS011;5379;51.034;7.006;2023-11-22T14:35:33;0.93;;;0.93;;
10661;SDS011;5379;51.034;7.006;2023-11-22T14:38:01;1.33;;;1.23;;
10661;SDS011;5379;51.034;7.006;2023-11-22T14:40:30;10.57;;;1.27;;
10661;SDS011;5379;51.034;7.006;2023-11-22T14:42:58;0.80;;;0.80;;
10661;SDS011;5379;51.034;7.006;2023-11-22T14:45:27;1.53;;;1.47;;
10661;SDS011;5379;51.034;7.006;2023-11-22T14:47:55;4.97;;;1.87;;
10661;SDS011;5379;51.034;7.006;2023-11-22T14:50:22;1.67;;;1.57;;
10661;SDS011;5379;51.034;7.006;2023-11-22T14:52:53;1.60;;;1.50;;
10661;SDS011;5379;51.034;7.006;2023-11-22T14:55:20;1.83;;;1.73;;
10661;SDS011;5379;51.034;7.006;2023-11-22T14:57:50;2.20;;;1.57;;
10661;SDS011;5379;51.034;7.006;2023-11-22T15:00:19;1.33;;;1.27;;
10661;SDS011;5379;51.034;7.006;2023-11-22T15:02:46;1.70;;;1.70;;
10661;SDS011;5379;51.034;7.006;2023-11-22T15:05:17;1.80;;;1.70;;
10661;SDS011;5379;51.034;7.006;2023-11-22T15:07:43;0.80;;;0.80;;
10661;SDS011;5379;51.034;7.006;2023-11-22T15:10:12;2.17;;;1.20;;
10661;SDS011;5379;51.034;7.006;2023-11-22T15:12:39;1.43;;;1.43;;
10661;SDS011;5379;51.034;7.006;2023-11-22T15:15:07;1.73;;;1.63;;
10661;SDS011;5379;51.034;7.006;2023-11-22T15:17:35;2.37;;;2.23;;
10661;SDS011;5379;51.034;7.006;2023-11-22T15:20:03;2.07;;;1.90;;
10661;SDS011;5379;51.034;7.006;2023-11-22T15:22:34;1.83;;;1.67;;
10661;SDS011;5379;51.034;7.006;2023-11-22T15:25:01;1.97;;;1.87;;
10661;SDS011;5379;51.034;7.006;2023-11-22T15:27:29;1.97;;;1.87;;
10661;SDS011;5379;51.034;7.006;2023-11-22T15:29:56;2.23;;;2.13;;
10661;SDS011;5379;51.034;7.006;2023-11-22T15:32:23;2.30;;;2.10;;
10661;SDS011;5379;51.034;7.006;2023-11-22T15:34:49;2.33;;;2.20;;
10661;SDS011;5379;51.034;7.006;2023-11-22T15:37:16;2.37;;;2.23;;
10661;SDS011;5379;51.034;7.006;2023-11-22T15:39:43;2.60;;;2.40;;
10661;SDS011;5379;51.034;7.006;2023-11-22T15:42:10;2.50;;;2.27;;
10661;SDS011;5379;51.034;7.006;2023-11-22T15:44:38;2.43;;;2.30;;
10661;SDS011;5379;51.034;7.006;2023-11-22T15:47:05;2.87;;;2.40;;
10661;SDS011;5379;51.034;7.006;2023-11-22T15:49:33;3.27;;;3.00;;
10661;SDS011;5379;51.034;7.006;2023-11-22T15:52:00;3.07;;;2.90;;
10661;SDS011;5379;51.034;7.006;2023-11-22T15:54:27;21.07;;;2.27;;
10661;SDS011;5379;51.034;7.006;2023-11-22T15:56:54;2.27;;;2.17;;
10661;SDS011;5379;51.034;7.006;2023-11-22T15:59:21;3.17;;;2.70;;
10661;SDS011;5379;51.034;7.006;2023-11-22T16:01:49;20.20;;;2.67;;
10661;SDS011;5379;51.034;7.006;2023-11-22T16:04:16;2.63;;;2.43;;
10661;SDS011;5379;51.034;7.006;2023-11-22T16:06:43;3.40;;;2.70;;
10661;SDS011;5379;51.034;7.006;2023-11-22T16:09:11;4.43;;;2.60;;
10661;SDS011;5379;51.034;7.006;2023-11-22T16:11:39;3.37;;;3.13;;
10661;SDS011;5379;51.034;7.006;2023-11-22T16:14:07;3.93;;;2.73;;
10661;SDS011;5379;51.034;7.006;2023-11-22T16:16:35;3.13;;;2.13;;
10661;SDS011;5379;51.034;7.006;2023-11-22T16:19:05;3.33;;;2.70;;
10661;SDS011;5379;51.034;7.006;2023-11-22T16:21:32;4.87;;;3.43;;
10661;SDS011;5379;51.034;7.006;2023-11-22T16:23:59;2.80;;;2.50;;
10661;SDS011;5379;51.034;7.006;2023-11-22T16:26:26;3.43;;;3.17;;
10661;SDS011;5379;51.034;7.006;2023-11-22T16:28:53;2.60;;;2.50;;
10661;SDS011;5379;51.034;7.006;2023-11-22T16:31:19;3.40;;;3.10;;
10661;SDS011;5379;51.034;7.006;2023-11-22T16:33:46;3.50;;;3.23;;
10661;SDS011;5379;51.034;7.006;2023-11-22T16:36:14;2.50;;;2.37;;
10661;SDS011;5379;51.034;7.006;2023-11-22T16:38:45;3.03;;;2.67;;
10661;SDS011;5379;51.034;7.006;2023-11-22T16:41:13;3.83;;;2.40;;
10661;SDS011;5379;51.034;7.006;2023-11-22T16:43:40;3.27;;;3.07;;
10661;SDS011;5379;51.034;7.006;2023-11-22T16:46:07;6.83;;;3.13;;
10661;SDS011;5379;51.034;7.006;2023-11-22T16:48:33;2.80;;;2.60;;
10661;SDS011;5379;51.034;7.006;2023-11-22T16:51:01;4.13;;;2.97;;
10661;SDS011;5379;51.034;7.006;2023-11-22T16:53:29;2.97;;;2.77;;
10661;SDS011;5379;51.034;7.006;2023-11-22T16:55:56;5.90;;;2.77;;
10661;SDS011;5379;51.034;7.006;2023-11-22T16:58:22;3.93;;;3.53;;
10661;SDS011;5379;51.034;7.006;2023-11-22T17:00:49;2.80;;;2.60;;
10661;SDS011;5379;51.034;7.006;2023-11-22T17:03:16;2.87;;;2.77;;
10661;SDS011;5379;51.034;7.006;2023-11-22T17:05:43;5.07;;;3.50;;
10661;SDS011;5379;51.034;7.006;2023-11-22T17:08:11;3.43;;;3.20;;
10661;SDS011;5379;51.034;7.006;2023-11-22T17:10:40;3.20;;;3.00;;
10661;SDS011;5379;51.034;7.006;2023-11-22T17:13:07;3.47;;;3.20;;
10661;SDS011;5379;51.034;7.006;2023-11-22T17:15:36;5.07;;;3.50;;
10661;SDS011;5379;51.034;7.006;2023-11-22T17:18:04;3.80;;;3.03;;
10661;SDS011;5379;51.034;7.006;2023-11-22T17:20:31;2.50;;;2.40;;
10661;SDS011;5379;51.034;7.006;2023-11-22T17:22:57;3.30;;;3.03;;
10661;SDS011;5379;51.034;7.006;2023-11-22T17:25:25;2.87;;;2.67;;
10661;SDS011;5379;51.034;7.006;2023-11-22T17:27:54;3.20;;;2.90;;
10661;SDS011;5379;51.034;7.006;2023-11-22T17:30:20;3.33;;;2.97;;
10661;SDS011;5379;51.034;7.006;2023-11-22T17:32:48;2.77;;;2.57;;
10661;SDS011;5379;51.034;7.006;2023-11-22T17:35:15;2.47;;;2.37;;
10661;SDS011;5379;51.034;7.006;2023-11-22T17:37:42;2.83;;;2.53;;
10661;SDS011;5379;51.034;7.006;2023-11-22T17:40:09;2.43;;;2.33;;
10661;SDS011;5379;51.034;7.006;2023-11-22T17:42:38;2.63;;;2.43;;
10661;SDS011;5379;51.034;7.006;2023-11-22T17:45:06;2.10;;;1.93;;
10661;SDS011;5379;51.034;7.006;2023-11-22T17:47:34;2.17;;;2.07;;
10661;SDS011;5379;51.034;7.006;2023-11-22T17:50:02;2.77;;;1.67;;
10661;SDS011;5379;51.034;7.006;2023-11-22T17:52:30;2.30;;;2.10;;
10661;SDS011;5379;51.034;7.006;2023-11-22T17:54:57;2.23;;;2.10;;
10661;SDS011;5379;51.034;7.006;2023-11-22T17:57:24;2.07;;;1.97;;
10661;SDS011;5379;51.034;7.006;2023-11-22T17:59:52;3.37;;;2.70;;
10661;SDS011;5379;51.034;7.006;2023-11-22T18:02:20;2.83;;;2.63;;
10661;SDS011;5379;51.034;7.006;2023-11-22T18:04:47;2.50;;;2.40;;
10661;SDS011;5379;51.034;7.006;2023-11-22T18:07:14;3.00;;;2.67;;
10661;SDS011;5379;51.034;7.006;2023-11-22T18:09:41;3.27;;;2.93;;
10661;SDS011;5379;51.034;7.006;2023-11-22T18:12:08;2.77;;;2.57;;
10661;SDS011;5379;51.034;7.006;2023-11-22T18:14:36;2.53;;;2.33;;
10661;SDS011;5379;51.034;7.006;2023-11-22T18:17:03;2.07;;;1.97;;
10661;SDS011;5379;51.034;7.006;2023-11-22T18:19:31;2.80;;;2.60;;
10661;SDS011;5379;51.034;7.006;2023-11-22T18:21:58;3.03;;;2.83;;
10661;SDS011;5379;51.034;7.006;2023-11-22T18:24:25;2.47;;;2.27;;
10661;SDS011;5379;51.034;7.006;2023-11-22T18:26:54;3.20;;;3.00;;
10661;SDS011;5379;51.034;7.006;2023-11-22T18:29:21;2.33;;;2.23;;
10661;SDS011;5379;51.034;7.006;2023-11-22T18:31:51;3.57;;;3.27;;
10661;SDS011;5379;51.034;7.006;2023-11-22T18:34:20;2.93;;;2.70;;
10661;SDS011;5379;51.034;7.006;2023-11-22T18:36:48;2.60;;;2.40;;
10661;SDS011;5379;51.034;7.006;2023-11-22T18:39:15;3.07;;;2.87;;
10661;SDS011;5379;51.034;7.006;2023-11-22T18:41:42;3.23;;;2.93;;
10661;SDS011;5379;51.034;7.006;2023-11-22T18:44:08;3.07;;;2.63;;
10661;SDS011;5379;51.034;7.006;2023-11-22T18:46:35;3.87;;;3.60;;
10661;SDS011;5379;51.034;7.006;2023-11-22T18:49:02;3.17;;;2.97;;
10661;SDS011;5379;51.034;7.006;2023-11-22T18:51:30;3.90;;;3.57;;
10661;SDS011;5379;51.034;7.006;2023-11-22T18:53:58;3.23;;;3.03;;
10661;SDS011;5379;51.034;7.006;2023-11-22T18:56:25;3.97;;;3.67;;
10661;SDS011;5379;51.034;7.006;2023-11-22T18:58:52;4.03;;;3.30;;
10661;SDS011;5379;51.034;7.006;2023-11-22T19:01:18;3.60;;;3.37;;
10661;SDS011;5379;51.034;7.006;2023-11-22T19:03:46;4.37;;;4.00;;
10661;SDS011;5379;51.034;7.006;2023-11-22T19:06:13;3.50;;;3.20;;
10661;SDS011;5379;51.034;7.006;2023-11-22T19:08:40;3.10;;;2.90;;
10661;SDS011;5379;51.034;7.006;2023-11-22T19:11:09;3.60;;;3.30;;
10661;SDS011;5379;51.034;7.006;2023-11-22T19:13:36;2.87;;;2.67;;
10661;SDS011;5379;51.034;7.006;2023-11-22T19:16:04;3.50;;;2.47;;
10661;SDS011;5379;51.034;7.006;2023-11-22T19:18:31;2.10;;;2.00;;
10661;SDS011;5379;51.034;7.006;2023-11-22T19:20:58;4.63;;;4.03;;
10661;SDS011;5379;51.034;7.006;2023-11-22T19:23:28;7.33;;;3.13;;
10661;SDS011;5379;51.034;7.006;2023-11-22T19:25:55;2.63;;;2.50;;
10661;SDS011;5379;51.034;7.006;2023-11-22T19:28:25;9.03;;;3.17;;
10661;SDS011;5379;51.034;7.006;2023-11-22T19:30:52;3.77;;;3.33;;
10661;SDS011;5379;51.034;7.006;2023-11-22T19:33:19;3.43;;;3.00;;
10661;SDS011;5379;51.034;7.006;2023-11-22T19:35:46;4.57;;;3.17;;